Time;durP1;ratioP1;P1;durP2;ratioP2;P2;SDS_P1;SDS_P2;PMS_P1;PMS_P2;Temp;Humidity;BMP_temperature;BMP_pressure;BME280_temperature;BME280_humidity;BME280_pressure;Samples;Min_cycle;Max_cycle;Signal;HPM_P1;HPM_P2
2021/10/18 00:04:10;;;;;;;19.73;14.63;;;;;;;8.82;100.00;102112.53;10584554;28;20524;-60
2021/10/18 00:09:12;;;;;;;21.08;15.18;;;;;;;9.00;100.00;102106.75;10584747;28;20051;-60
2021/10/18 00:14:19;;;;;;;23.85;16.38;;;;;;;9.18;100.00;102109.69;10584430;28;20392;-60
2021/10/18 00:19:22;;;;;;;21.55;15.98;;;;;;;8.93;100.00;102111.31;10584047;28;20450;-60
2021/10/18 00:24:24;;;;;;;23.10;15.07;;;;;;;9.15;100.00;102118.50;10584436;28;20066;-60
2021/10/18 00:29:26;;;;;;;18.30;15.45;;;;;;;9.02;100.00;102120.63;10583910;28;20048;-61
2021/10/18 00:34:29;;;;;;;21.75;15.40;;;;;;;8.79;100.00;102117.81;10565178;28;20488;-60
2021/10/18 00:39:31;;;;;;;22.60;15.48;;;;;;;8.72;100.00;102124.97;10583313;28;20388;-60
2021/10/18 00:44:33;;;;;;;23.67;14.73;;;;;;;8.72;100.00;102132.81;10583106;28;20486;-60
2021/10/18 00:49:36;;;;;;;18.77;15.35;;;;;;;8.52;100.00;102146.41;10564463;28;20048;-60
2021/10/18 00:54:38;;;;;;;23.65;17.13;;;;;;;8.62;100.00;102149.63;10564840;28;20047;-60
2021/10/18 00:59:40;;;;;;;23.48;16.25;;;;;;;8.72;100.00;102146.75;10582778;28;20050;-60
2021/10/18 01:04:43;;;;;;;20.80;15.00;;;;;;;8.67;100.00;102139.91;10564594;28;20114;-60
2021/10/18 01:09:46;;;;;;;21.27;15.75;;;;;;;8.80;100.00;102153.50;10547423;28;20483;-61
2021/10/18 01:14:48;;;;;;;24.45;16.10;;;;;;;8.87;100.00;102155.03;10564128;28;20047;-60
2021/10/18 01:19:50;;;;;;;27.73;16.38;;;;;;;8.89;100.00;102151.50;10563829;28;20438;-60
2021/10/18 01:24:53;;;;;;;22.48;14.25;;;;;;;8.83;100.00;102137.75;10582159;28;20053;-60
2021/10/18 01:29:55;;;;;;;21.77;15.35;;;;;;;8.92;100.00;102134.84;10581860;28;20046;-60
2021/10/18 01:34:57;;;;;;;19.67;14.40;;;;;;;9.05;100.00;102130.97;10563259;28;20498;-60
2021/10/18 01:40:00;;;;;;;21.00;16.67;;;;;;;8.68;100.00;102133.81;10581499;28;20403;-60
2021/10/18 01:45:03;;;;;;;23.10;15.57;;;;;;;8.48;100.00;102116.09;10563908;28;20060;-60
2021/10/18 01:50:14;;;;;;;28.05;16.45;;;;;;;8.40;100.00;102134.53;10581515;28;20055;-60
2021/10/18 01:55:17;;;;;;;26.57;16.73;;;;;;;8.36;100.00;102128.53;10563781;28;20047;-60
2021/10/18 02:00:20;;;;;;;25.95;15.43;;;;;;;8.28;100.00;102130.50;10585388;28;20047;-60
2021/10/18 02:05:22;;;;;;;21.15;16.10;;;;;;;8.41;100.00;102123.19;10589757;28;20048;-60
2021/10/18 02:10:24;;;;;;;23.95;17.55;;;;;;;8.35;100.00;102123.34;10589543;28;20047;-60
2021/10/18 02:15:27;;;;;;;24.75;18.95;;;;;;;8.56;100.00;102119.34;10589168;28;20052;-60
2021/10/18 02:20:29;;;;;;;25.45;17.25;;;;;;;8.52;100.00;102112.47;10589532;28;20044;-60
2021/10/18 02:25:32;;;;;;;34.20;21.48;;;;;;;8.67;100.00;102114.66;10570845;28;20055;-60
2021/10/18 02:30:34;;;;;;;26.85;20.50;;;;;;;8.71;100.00;102115.44;10588715;28;20047;-60
2021/10/18 02:35:36;;;;;;;35.78;21.92;;;;;;;8.95;100.00;102120.88;10588341;28;20056;-60
2021/10/18 02:40:38;;;;;;;34.30;23.55;;;;;;;8.64;100.00;102119.13;10588298;28;20043;-60
2021/10/18 02:45:41;;;;;;;33.53;22.83;;;;;;;8.64;100.00;102112.16;10588198;28;20074;-60
2021/10/18 02:50:43;;;;;;;27.52;21.70;;;;;;;8.67;100.00;102101.59;10587798;28;20395;-60
2021/10/18 02:55:46;;;;;;;35.38;22.23;;;;;;;8.77;100.00;102111.78;10587707;28;20048;-60
2021/10/18 03:00:48;;;;;;;35.17;23.95;;;;;;;8.62;100.00;102105.25;10587501;28;20047;-60
2021/10/18 03:05:50;;;;;;;30.35;23.88;;;;;;;8.53;100.00;102102.00;10587281;28;20403;-60
2021/10/18 03:10:53;;;;;;;36.20;25.88;;;;;;;8.19;100.00;102102.88;10586764;28;20055;-60
2021/10/18 03:15:55;;;;;;;41.67;28.35;;;;;;;8.38;100.00;102103.25;10586949;28;20067;-60
2021/10/18 03:20:58;;;;;;;35.90;26.83;;;;;;;8.54;100.00;102103.72;10586477;28;20372;-60
2021/10/18 03:26:00;;;;;;;35.00;26.20;;;;;;;8.31;100.00;102096.50;10568522;28;20406;-60
2021/10/18 03:31:02;;;;;;;39.47;25.88;;;;;;;8.31;100.00;102096.50;10585942;28;20495;-60
2021/10/18 03:36:05;;;;;;;35.05;25.08;;;;;;;8.50;100.00;102096.00;10586176;28;20051;-60
2021/10/18 03:41:08;;;;;;;33.95;22.25;;;;;;;8.71;100.00;102099.78;10585836;28;20050;-60
2021/10/18 03:46:10;;;;;;;31.55;22.90;;;;;;;8.40;100.00;102107.56;10586271;28;20048;-60
2021/10/18 03:51:13;;;;;;;46.80;30.15;;;;;;;8.47;100.00;102109.16;10585098;28;20051;-60
2021/10/18 03:56:15;;;;;;;36.70;24.23;;;;;;;8.42;100.00;102118.81;10585063;28;20043;-60
2021/10/18 04:01:17;;;;;;;40.28;27.73;;;;;;;8.04;100.00;102112.88;10566941;28;20050;-60
2021/10/18 04:06:20;;;;;;;32.72;23.85;;;;;;;8.05;100.00;102119.78;10584900;28;20063;-60
2021/10/18 04:11:22;;;;;;;32.53;23.33;;;;;;;8.33;100.00;102127.75;10584767;28;20236;-60
2021/10/18 04:16:24;;;;;;;31.67;24.05;;;;;;;8.01;100.00;102126.84;10584157;28;20044;-60
2021/10/18 04:21:27;;;;;;;47.00;32.42;;;;;;;7.71;100.00;102128.47;10583556;28;20059;-60
2021/10/18 04:26:30;;;;;;;33.42;27.08;;;;;;;7.65;100.00;102126.88;10583602;28;20056;-60
2021/10/18 04:31:33;;;;;;;39.38;28.67;;;;;;;7.62;100.00;102130.38;10566146;28;20051;-60
2021/10/18 04:36:35;;;;;;;35.05;25.38;;;;;;;7.81;100.00;102135.16;10565614;28;20056;-60
2021/10/18 04:41:37;;;;;;;36.17;26.27;;;;;;;7.80;100.00;102125.63;10583177;28;20372;-60
2021/10/18 04:46:40;;;;;;;33.15;25.17;;;;;;;7.59;100.00;102129.63;10583165;28;20510;-60
2021/10/18 04:51:42;;;;;;;45.92;31.40;;;;;;;7.28;100.00;102130.31;10582994;28;20380;-60
2021/10/18 04:56:45;;;;;;;35.95;27.45;;;;;;;7.20;100.00;102135.69;10565138;28;20053;-60
2021/10/18 05:01:47;;;;;;;39.65;27.52;;;;;;;7.24;100.00;102145.13;10582700;28;20054;-60
2021/10/18 05:06:49;;;;;;;43.92;32.42;;;;;;;7.07;100.00;102152.47;10582600;28;20047;-60
2021/10/18 05:11:52;;;;;;;38.22;28.90;;;;;;;7.03;100.00;102156.88;10582454;28;20044;-60
2021/10/18 05:16:55;;;;;;;48.00;29.42;;;;;;;7.18;100.00;102155.72;10582264;28;20071;-60
2021/10/18 05:21:58;;;;;;;49.08;33.53;;;;;;;7.03;100.00;102161.25;10564090;28;20055;-60
2021/10/18 05:27:00;;;;;;;41.00;30.77;;;;;;;7.22;100.00;102154.75;10581940;28;20491;-60
2021/10/18 05:32:03;;;;;;;39.65;27.73;;;;;;;7.49;100.00;102148.97;10581787;28;20054;-60
2021/10/18 05:37:05;;;;;;;38.13;28.73;;;;;;;7.23;100.00;102164.28;10563625;28;20082;-60
2021/10/18 05:42:07;;;;;;;48.53;31.67;;;;;;;7.33;100.00;102167.56;10581844;28;20399;-60
2021/10/18 05:47:10;;;;;;;40.75;30.42;;;;;;;7.30;100.00;102167.63;10582031;28;20051;-60
2021/10/18 05:52:12;;;;;;;47.83;31.30;;;;;;;7.30;100.00;102167.63;10563671;28;20048;-60
2021/10/18 05:57:14;;;;;;;44.25;31.50;;;;;;;7.47;100.00;102166.38;10581834;28;20052;-60
2021/10/18 06:02:16;;;;;;;51.22;32.67;;;;;;;7.38;100.00;102167.44;10581556;28;20047;-60
2021/10/18 06:07:19;;;;;;;46.83;31.67;;;;;;;7.51;100.00;102175.84;10581941;28;20051;-60
2021/10/18 06:12:21;;;;;;;40.20;27.33;;;;;;;7.72;100.00;102175.34;10563617;28;20122;-60
2021/10/18 06:17:24;;;;;;;44.88;29.92;;;;;;;7.57;100.00;102191.34;10580946;28;20039;-60
2021/10/18 06:22:26;;;;;;;50.38;30.48;;;;;;;7.66;100.00;102188.53;10579067;28;20084;-60
2021/10/18 06:27:29;;;;;;;47.17;29.25;;;;;;;7.53;100.00;102177.53;10581272;28;20044;-60
2021/10/18 06:32:32;;;;;;;39.63;28.52;;;;;;;7.49;100.00;102178.47;10580546;28;20399;-60
2021/10/18 06:37:35;;;;;;;40.95;29.23;;;;;;;7.53;100.00;102180.16;10562569;28;20506;-60
2021/10/18 06:42:38;;;;;;;40.50;28.10;;;;;;;7.63;100.00;102186.84;10580544;28;20044;-60
2021/10/18 06:47:41;;;;;;;41.60;26.92;;;;;;;7.61;100.00;102196.44;10585234;28;20057;-61
2021/10/18 06:52:44;;;;;;;40.20;27.73;;;;;;;7.71;100.00;102185.81;10588223;28;20050;-60
2021/10/18 06:57:46;;;;;;;40.10;26.50;;;;;;;7.69;100.00;102177.19;10588395;28;20048;-60
2021/10/18 07:02:49;;;;;;;31.25;22.48;;;;;;;7.93;100.00;102187.00;10587792;28;20046;-60
2021/10/18 07:07:51;;;;;;;32.38;24.00;;;;;;;7.98;100.00;102192.13;10587693;28;20047;-60
2021/10/18 07:12:53;;;;;;;32.33;23.55;;;;;;;7.99;100.00;102202.53;10587644;28;20051;-60
2021/10/18 07:17:56;;;;;;;35.03;23.80;;;;;;;8.20;100.00;102200.28;10587180;28;20044;-60
2021/10/18 07:23:00;;;;;;;31.50;22.85;;;;;;;8.32;100.00;102205.19;10586985;28;20050;-60
2021/10/18 07:28:02;;;;;;;32.78;23.33;;;;;;;8.44;100.00;102197.97;10586787;28;20063;-60
2021/10/18 07:33:05;;;;;;;28.77;21.63;;;;;;;8.63;100.00;102193.13;10586995;28;20055;-60
2021/10/18 07:38:09;;;;;;;26.00;19.63;;;;;;;8.71;100.00;102199.00;10586367;28;20055;-60
2021/10/18 07:43:11;;;;;;;25.15;18.10;;;;;;;8.70;100.00;102187.69;10586029;28;20503;-60
2021/10/18 07:48:14;;;;;;;25.15;18.20;;;;;;;8.95;100.00;102183.56;10585899;28;20475;-60
2021/10/18 07:53:16;;;;;;;28.98;18.48;;;;;;;9.18;100.00;102201.16;10585569;28;20044;-60
2021/10/18 07:58:20;;;;;;;20.42;18.25;;;;;;;9.19;100.00;102202.88;10585452;28;20058;-60
2021/10/18 08:03:23;;;;;;;24.35;17.55;;;;;;;9.58;100.00;102199.97;10585131;28;20134;-60
2021/10/18 08:08:30;;;;;;;23.90;15.75;;;;;;;9.86;99.16;102202.59;10585208;28;20062;-60
2021/10/18 08:13:32;;;;;;;19.15;16.30;;;;;;;10.41;98.74;102198.16;10585149;28;20047;-60
2021/10/18 08:18:35;;;;;;;22.90;16.05;;;;;;;10.17;95.48;102201.56;10566609;28;20055;-60
2021/10/18 08:23:37;;;;;;;22.58;15.48;;;;;;;10.54;96.75;102210.81;10566202;28;20044;-60
2021/10/18 08:28:39;;;;;;;20.15;15.45;;;;;;;10.57;94.04;102208.97;10549237;28;20521;-60
2021/10/18 08:33:47;;;;;;;24.23;15.15;;;;;;;10.24;93.61;102218.81;10584177;28;20048;-60
2021/10/18 08:38:51;;;;;;;21.20;15.95;;;;;;;10.65;95.50;102213.09;10583535;28;20056;-60
2021/10/18 08:49:18;;;;;;;21.33;14.00;;;;;;;11.68;87.21;102198.75;10583239;28;20048;-60
2021/10/18 08:54:20;;;;;;;21.38;14.52;;;;;;;12.33;87.33;102188.28;10565229;28;20047;-61
2021/10/18 08:59:28;;;;;;;15.82;14.00;;;;;;;12.25;89.68;102189.47;10582863;28;20047;-60
2021/10/18 09:04:36;;;;;;;17.80;13.10;;;;;;;13.14;86.05;102186.44;10583766;28;20043;-61
2021/10/18 09:09:46;;;;;;;17.30;14.20;;;;;;;12.34;84.12;102188.22;10582210;28;20055;-61
2021/10/18 09:14:48;;;;;;;16.30;13.18;;;;;;;13.16;81.88;102206.50;10564290;28;20056;-60
2021/10/18 09:19:50;;;;;;;14.55;12.45;;;;;;;14.50;79.23;102207.91;10581899;28;20071;-61
2021/10/18 09:24:53;;;;;;;15.88;13.20;;;;;;;14.97;75.46;102202.91;10582181;28;20061;-61
2021/10/18 09:29:55;;;;;;;14.32;11.88;;;;;;;15.64;76.48;102194.84;10564206;28;20126;-61
2021/10/18 09:35:05;;;;;;;15.02;11.27;;;;;;;14.78;75.95;102206.53;10581144;28;20399;-61
2021/10/18 09:40:28;;;;;;;16.92;12.45;;;;;;;14.33;77.37;102186.00;10581533;28;20130;-62
2021/10/18 09:45:31;;;;;;;16.00;12.68;;;;;;;14.63;78.54;102202.91;10581763;28;20048;-61
2021/10/18 10:55:40;;;;;;;21.70;14.88;;;;;;;13.98;72.66;102117.53;10587068;28;20047;-62
2021/10/18 11:00:43;;;;;;;19.95;15.60;;;;;;;15.07;74.82;102100.41;10587477;28;20051;-62
2021/10/18 11:06:07;;;;;;;20.50;15.70;;;;;;;15.17;73.20;102105.06;10569407;28;20105;-62
2021/10/18 11:11:17;;;;;;;16.05;14.40;;;;;;;15.74;67.47;102101.81;10587105;28;20040;-62
2021/10/18 11:16:22;;;;;;;19.90;14.75;;;;;;;15.62;70.32;102102.53;10587014;28;20055;-62
2021/10/18 11:21:29;;;;;;;16.85;14.25;;;;;;;15.58;66.75;102099.22;10586854;28;20044;-62
2021/10/18 11:26:37;;;;;;;16.33;13.55;;;;;;;15.45;66.41;102097.34;10586845;28;20043;-62
2021/10/18 11:31:44;;;;;;;19.30;14.75;;;;;;;15.65;67.04;102090.94;10568759;28;20059;-62
2021/10/18 11:36:49;;;;;;;16.73;14.65;;;;;;;15.67;68.59;102078.47;10586217;28;20142;-62
2021/10/18 11:42:13;;;;;;;16.13;13.45;;;;;;;15.80;69.36;102068.94;10567842;28;20050;-62
2021/10/18 11:47:24;;;;;;;15.55;13.05;;;;;;;16.14;67.91;102065.13;10585886;28;20058;-62
2021/10/18 11:52:26;;;;;;;;;;;;;;;16.04;65.43;102056.06;10586196;28;20047;-62
2021/10/18 11:57:29;;;;;;;16.17;13.32;;;;;;;15.85;70.76;102050.19;10586121;28;19927;-62
2021/10/18 12:02:31;;;;;;;17.80;14.02;;;;;;;15.61;67.75;102038.31;10585196;28;20519;-62
2021/10/18 12:07:41;;;;;;;18.55;13.60;;;;;;;15.59;68.91;102026.16;10585137;28;20437;-62
2021/10/18 12:13:13;;;;;;;16.75;12.25;;;;;;;16.22;69.88;102009.16;10585144;28;20058;-62
2021/10/18 12:18:21;;;;;;;18.10;12.55;;;;;;;15.45;72.63;101991.81;10567383;28;20051;-62
2021/10/18 12:23:35;;;;;;;16.50;12.60;;;;;;;15.24;72.37;101978.94;10566809;28;20047;-62
2021/10/18 12:28:46;;;;;;;15.50;12.70;;;;;;;15.36;71.99;101991.41;10584876;28;20055;-62
2021/10/18 12:33:58;;;;;;;18.67;11.55;;;;;;;15.06;71.51;101988.75;10584466;28;20047;-62
2021/10/18 12:39:01;;;;;;;15.88;12.13;;;;;;;15.36;70.14;101983.47;10584449;28;20059;-62
2021/10/18 12:44:04;;;;;;;16.02;12.13;;;;;;;15.21;74.92;101979.09;10583505;28;20044;-62
2021/10/18 12:49:07;;;;;;;14.18;12.40;;;;;;;14.94;72.40;101978.91;10583446;28;20394;-62
2021/10/18 12:54:24;;;;;;;16.42;11.98;;;;;;;15.19;73.21;101981.84;10583904;28;20059;-62
2021/10/18 12:59:26;;;;;;;16.30;12.75;;;;;;;14.85;73.79;101975.84;10583046;28;20047;-62
2021/10/18 13:04:29;;;;;;;14.50;12.30;;;;;;;14.94;73.75;101968.38;10584078;28;20058;-62
2021/10/18 13:09:31;;;;;;;15.85;11.55;;;;;;;14.97;74.20;101955.00;10582684;28;20407;-62
2021/10/18 13:14:33;;;;;;;16.83;12.00;;;;;;;15.05;73.71;101945.72;10582494;28;20406;-62
2021/10/18 13:19:36;;;;;;;15.05;11.05;;;;;;;15.17;75.24;101936.22;10582312;28;20048;-62
2021/10/18 13:24:38;;;;;;;15.60;12.05;;;;;;;14.88;73.36;101944.97;10582104;28;20063;-62
2021/10/18 13:29:40;;;;;;;16.05;11.10;;;;;;;14.96;77.88;101956.81;10581806;28;20051;-62
2021/10/18 13:34:44;;;;;;;16.52;11.25;;;;;;;15.09;80.24;101961.38;10581912;28;20050;-62
2021/10/18 13:39:46;;;;;;;12.40;10.32;;;;;;;15.40;79.40;101956.00;10582679;28;20056;-62
2021/10/18 13:44:48;;;;;;;16.25;12.15;;;;;;;15.27;74.89;101972.66;10581734;28;20081;-62
2021/10/18 13:49:51;;;;;;;14.70;11.02;;;;;;;15.13;75.93;101969.03;10563834;28;20040;-62
2021/10/18 13:54:53;;;;;;;14.48;10.80;;;;;;;15.17;79.11;101985.50;10583781;28;20052;-62
2021/10/18 13:59:56;;;;;;;13.35;9.95;;;;;;;15.05;78.53;101993.19;10590091;28;20380;-62
2021/10/18 14:04:58;;;;;;;11.38;10.18;;;;;;;14.99;79.38;101974.22;10590515;28;20044;-62
2021/10/18 14:10:01;;;;;;;13.27;10.20;;;;;;;15.04;78.95;101970.38;10589670;28;20505;-62
2021/10/18 14:15:07;;;;;;;14.68;10.35;;;;;;;15.13;76.56;101987.47;10589216;28;20072;-62
2021/10/18 14:20:12;;;;;;;15.35;10.40;;;;;;;15.23;76.70;101995.69;10571352;28;20051;-62
2021/10/18 14:25:14;;;;;;;12.18;10.20;;;;;;;15.07;77.84;101984.34;10589759;28;20075;-62
2021/10/18 14:30:17;;;;;;;12.13;10.70;;;;;;;14.97;78.75;101979.59;10589138;28;20039;-62
2021/10/18 14:35:20;;;;;;;19.80;10.63;;;;;;;15.09;80.96;101978.03;10588543;28;20418;-62
2021/10/18 14:40:22;;;;;;;15.38;9.25;;;;;;;15.00;84.54;101979.41;10588546;28;20423;-62
2021/10/18 14:45:25;;;;;;;14.82;9.68;;;;;;;14.93;84.73;101966.66;10570633;28;20043;-62
2021/10/18 14:50:27;;;;;;;11.30;9.45;;;;;;;14.54;87.46;101965.31;10588408;28;20039;-62
2021/10/18 14:55:29;;;;;;;12.45;8.68;;;;;;;14.85;85.95;101967.94;10570570;28;20048;-63
2021/10/18 15:00:33;;;;;;;14.32;10.07;;;;;;;14.49;84.91;101970.81;10587848;28;20052;-62
2021/10/18 15:05:35;;;;;;;14.77;9.85;;;;;;;14.58;87.60;101965.06;10587526;28;20065;-62
2021/10/18 15:10:40;;;;;;;12.27;9.95;;;;;;;14.29;88.24;101964.03;10569145;28;20039;-62
2021/10/18 15:15:42;;;;;;;14.55;9.25;;;;;;;14.24;89.34;101959.00;10569373;28;20044;-62
2021/10/18 15:20:46;;;;;;;13.98;10.35;;;;;;;14.21;87.35;101956.53;10587189;28;20079;-62
2021/10/18 15:25:49;;;;;;;15.35;9.68;;;;;;;14.14;89.24;101949.91;10586921;28;20510;-62
2021/10/18 15:30:52;;;;;;;14.68;10.27;;;;;;;14.03;90.78;101953.09;10586640;28;20522;-62
2021/10/18 15:35:54;;;;;;;17.77;10.27;;;;;;;13.83;92.39;101963.84;10586417;28;20445;-62
2021/10/18 15:40:57;;;;;;;15.45;10.57;;;;;;;13.75;94.80;101965.13;10586896;28;20047;-62
2021/10/18 15:46:00;;;;;;;15.50;11.18;;;;;;;13.52;93.96;101952.31;10586291;28;20058;-62
2021/10/18 15:51:03;;;;;;;21.40;10.73;;;;;;;13.41;95.15;101947.56;10585844;28;20503;-62
2021/10/18 15:56:07;;;;;;;12.70;10.68;;;;;;;13.15;97.12;101944.44;10567824;28;20051;-62
2021/10/18 16:01:09;;;;;;;13.35;9.57;;;;;;;13.20;97.33;101942.44;10567483;28;20525;-62
2021/10/18 16:06:12;;;;;;;16.05;10.93;;;;;;;12.93;98.14;101949.94;10585798;28;20054;-62
2021/10/18 16:11:15;;;;;;;17.38;10.57;;;;;;;12.82;99.71;101939.06;10567219;28;20043;-62
2021/10/18 16:16:17;;;;;;;12.20;10.07;;;;;;;12.65;100.00;101932.00;10585387;28;20044;-62
2021/10/18 16:21:19;;;;;;;19.75;11.90;;;;;;;12.64;100.00;101927.66;10584630;28;20083;-62
2021/10/18 16:26:22;;;;;;;15.88;12.75;;;;;;;12.52;100.00;101923.00;10585310;28;20054;-62
2021/10/18 16:31:24;;;;;;;20.13;13.93;;;;;;;12.35;100.00;101931.69;10566173;28;20040;-62
2021/10/18 16:36:26;;;;;;;16.25;13.70;;;;;;;12.19;100.00;101923.69;10583780;28;20495;-62
2021/10/18 16:41:29;;;;;;;20.33;14.52;;;;;;;12.40;100.00;101924.44;10583913;28;20048;-62
2021/10/18 16:46:31;;;;;;;20.33;14.63;;;;;;;12.24;100.00;101914.66;10565924;28;20085;-62
2021/10/18 16:51:34;;;;;;;24.48;14.75;;;;;;;12.35;100.00;101910.69;10583223;28;20073;-62
2021/10/18 16:56:37;;;;;;;25.00;16.02;;;;;;;12.24;100.00;101929.56;10583759;28;20050;-62
2021/10/18 17:01:42;;;;;;;23.08;15.68;;;;;;;12.28;100.00;101923.25;10582996;28;20047;-62
2021/10/18 17:06:47;;;;;;;22.48;17.45;;;;;;;12.17;100.00;101925.50;10565398;28;20051;-62
2021/10/18 17:11:52;;;;;;;22.17;17.08;;;;;;;12.13;100.00;101914.31;10564913;28;20402;-62
2021/10/18 17:16:56;;;;;;;24.40;16.40;;;;;;;12.28;100.00;101923.25;10583098;28;20086;-62
2021/10/18 17:21:58;;;;;;;25.52;17.55;;;;;;;12.15;100.00;101915.06;10582345;28;20048;-62
2021/10/18 17:27:01;;;;;;;24.70;18.27;;;;;;;12.13;100.00;101921.34;10582284;28;20438;-61
2021/10/18 17:32:06;;;;;;;25.00;17.05;;;;;;;12.11;100.00;101933.69;10581596;28;20043;-62
2021/10/18 17:37:09;;;;;;;26.33;18.90;;;;;;;11.96;100.00;101924.72;10582601;28;20052;-62
2021/10/18 17:42:14;;;;;;;25.33;18.88;;;;;;;11.94;100.00;101929.22;10563786;28;20040;-62
2021/10/18 17:47:17;;;;;;;27.58;17.73;;;;;;;11.92;100.00;101939.78;10582137;28;20054;-62
2021/10/18 17:52:19;;;;;;;26.98;18.27;;;;;;;11.79;100.00;101922.84;10563630;28;20491;-62
2021/10/18 17:57:21;;;;;;;22.95;17.25;;;;;;;11.76;100.00;101915.94;10581820;28;20047;-61
2021/10/18 18:02:24;;;;;;;24.13;18.17;;;;;;;11.76;100.00;101928.22;10581786;28;20056;-62
2021/10/18 18:07:27;;;;;;;25.70;18.63;;;;;;;11.64;100.00;101917.34;10546955;28;20054;-61
2021/10/18 18:12:29;;;;;;;25.48;17.80;;;;;;;11.64;100.00;101919.97;10581534;28;20047;-62
2021/10/18 18:17:32;;;;;;;22.38;17.77;;;;;;;11.64;100.00;101916.50;10581637;28;20070;-62
2021/10/18 18:22:35;;;;;;;25.38;17.30;;;;;;;11.67;100.00;101919.81;10580912;28;20047;-62
2021/10/18 18:27:38;;;;;;;23.17;17.50;;;;;;;11.71;100.00;101918.75;10581438;28;20044;-62
2021/10/18 18:32:58;;;;;;;27.90;17.55;;;;;;;11.60;100.00;101917.53;10580895;28;20046;-62
2021/10/18 18:38:02;;;;;;;24.83;16.85;;;;;;;11.51;100.00;101901.28;10581470;28;20052;-62
2021/10/18 18:43:04;;;;;;;20.95;16.38;;;;;;;11.64;100.00;101898.97;10566207;28;20051;-62
2021/10/18 18:48:06;;;;;;;26.42;17.13;;;;;;;11.71;100.00;101904.81;10588869;28;20048;-62
2021/10/18 18:53:09;;;;;;;24.08;16.52;;;;;;;11.65;100.00;101916.44;10588469;28;20044;-62
2021/10/18 18:58:11;;;;;;;20.98;16.13;;;;;;;11.62;100.00;101913.94;10588452;28;20058;-62
2021/10/18 19:03:15;;;;;;;25.95;17.73;;;;;;;11.58;100.00;101924.63;10588078;28;20051;-62
2021/10/18 19:08:17;;;;;;;24.30;16.08;;;;;;;11.80;100.00;101911.41;10587730;28;20051;-62
2021/10/18 19:13:21;;;;;;;26.08;17.08;;;;;;;11.75;100.00;101895.88;10587448;28;20052;-62
2021/10/18 19:18:23;;;;;;;23.38;15.13;;;;;;;11.71;100.00;101910.03;10587352;28;20044;-61
2021/10/18 19:23:28;;;;;;;22.15;15.63;;;;;;;11.83;100.00;101906.03;10587841;28;20104;-62
2021/10/18 19:28:30;;;;;;;19.63;16.35;;;;;;;11.74;100.00;101898.59;10568961;28;20396;-61
2021/10/18 19:33:33;;;;;;;21.40;14.70;;;;;;;11.72;100.00;101890.78;10587128;28;20048;-62
2021/10/18 19:38:35;;;;;;;24.25;16.80;;;;;;;11.68;100.00;101895.31;10568228;28;20415;-62
2021/10/18 19:43:37;;;;;;;21.73;14.75;;;;;;;11.64;100.00;101887.63;10586517;28;20050;-62
2021/10/18 19:48:40;;;;;;;24.90;15.95;;;;;;;11.70;100.00;101897.84;10568062;28;20070;-62
2021/10/18 19:53:42;;;;;;;18.45;14.82;;;;;;;11.65;100.00;101908.56;10585740;28;20050;-62
2021/10/18 19:58:44;;;;;;;18.92;14.75;;;;;;;11.75;100.00;101916.00;10567940;28;20061;-61
2021/10/18 20:03:47;;;;;;;22.33;14.30;;;;;;;11.81;100.00;101913.13;10586538;28;20048;-62
2021/10/18 20:08:49;;;;;;;23.88;15.50;;;;;;;11.76;100.00;101908.06;10585349;28;20051;-61
2021/10/18 20:13:51;;;;;;;17.85;14.00;;;;;;;11.87;100.00;101894.47;10585093;28;20487;-62
2021/10/18 20:18:54;;;;;;;19.90;15.38;;;;;;;11.86;100.00;101890.97;10584856;28;20268;-62
2021/10/18 20:23:56;;;;;;;25.20;15.40;;;;;;;11.84;100.00;101892.84;10584696;28;20046;-62
2021/10/18 20:28:58;;;;;;;15.30;13.63;;;;;;;11.81;100.00;101892.13;10584503;28;20055;-62
2021/10/18 20:34:01;;;;;;;23.40;14.52;;;;;;;11.95;100.00;101894.16;10584141;28;20044;-62
2021/10/18 20:39:03;;;;;;;21.25;13.48;;;;;;;11.92;100.00;101879.41;10583744;28;20056;-61
2021/10/18 20:44:06;;;;;;;22.35;14.90;;;;;;;12.02;100.00;101883.31;10565945;28;20050;-61
2021/10/18 20:49:08;;;;;;;20.25;15.35;;;;;;;11.84;100.00;101881.50;10583720;28;20092;-62
2021/10/18 20:54:11;;;;;;;18.52;13.60;;;;;;;11.89;100.00;101897.88;10583852;28;20043;-62
2021/10/18 20:59:13;;;;;;;16.00;12.68;;;;;;;12.00;100.00;101897.41;10583914;28;20043;-62
2021/10/18 21:04:16;;;;;;;21.92;14.50;;;;;;;11.83;100.00;101899.00;10564822;28;20059;-62
2021/10/18 21:09:19;;;;;;;20.65;13.68;;;;;;;11.93;100.00;101885.50;10583512;28;20052;-61
2021/10/18 21:14:21;;;;;;;20.42;13.88;;;;;;;11.78;100.00;101887.84;10583395;28;20050;-62
2021/10/18 21:19:23;;;;;;;17.30;13.93;;;;;;;11.86;100.00;101884.91;10582579;28;20043;-61
2021/10/18 21:24:26;;;;;;;17.95;13.52;;;;;;;12.17;100.00;101891.38;10582407;28;20414;-62
2021/10/18 21:29:28;;;;;;;21.00;14.50;;;;;;;11.89;100.00;101887.38;10582327;28;20058;-62
2021/10/18 21:34:31;;;;;;;20.40;13.80;;;;;;;11.87;100.00;101882.19;10564042;28;20380;-62
2021/10/18 21:39:33;;;;;;;23.13;15.05;;;;;;;11.91;100.00;101867.19;10563909;28;20051;-62
2021/10/18 21:44:35;;;;;;;17.95;13.90;;;;;;;11.97;100.00;101873.94;10582083;28;20039;-62
2021/10/18 21:49:37;;;;;;;17.42;13.20;;;;;;;11.95;100.00;101862.66;10581672;28;20484;-62
2021/10/18 21:54:40;;;;;;;20.80;12.70;;;;;;;12.16;100.00;101859.03;10582026;28;20077;-62
2021/10/18 21:59:42;;;;;;;18.02;13.25;;;;;;;12.05;100.00;101864.81;10582118;28;20050;-62
2021/10/18 22:04:45;;;;;;;16.13;13.52;;;;;;;11.96;100.00;101849.47;10581560;28;20050;-62
2021/10/18 22:09:48;;;;;;;15.00;12.30;;;;;;;12.04;100.00;101849.97;10547030;28;20048;-62
2021/10/18 22:14:50;;;;;;;18.80;13.27;;;;;;;11.97;100.00;101848.56;10563460;28;20483;-62
2021/10/18 22:19:53;;;;;;;15.80;12.90;;;;;;;11.96;100.00;101843.38;10589623;28;20049;-62
2021/10/18 22:24:56;;;;;;;18.20;13.30;;;;;;;12.04;100.00;101843.88;10590099;28;20047;-62
2021/10/18 22:29:59;;;;;;;15.55;12.15;;;;;;;12.12;100.00;101856.63;10588977;28;20058;-62
2021/10/18 22:35:02;;;;;;;17.48;13.13;;;;;;;12.03;100.00;101850.88;10588990;28;20505;-62
2021/10/18 22:40:07;;;;;;;17.40;13.82;;;;;;;11.98;100.00;101841.53;10570615;28;20047;-62
2021/10/18 22:45:09;;;;;;;16.50;13.30;;;;;;;12.12;100.00;101838.25;10588743;28;20410;-62
2021/10/18 22:50:12;;;;;;;16.58;13.35;;;;;;;11.92;100.00;101840.03;10570372;28;20407;-62
2021/10/18 22:55:14;;;;;;;16.60;13.15;;;;;;;12.08;100.00;101833.13;10588382;28;20044;-62
2021/10/18 23:00:16;;;;;;;18.15;14.85;;;;;;;11.86;100.00;101832.41;10588288;28;20039;-62
2021/10/18 23:05:22;;;;;;;17.90;13.07;;;;;;;11.93;100.00;101835.63;10570213;28;20044;-62
2021/10/18 23:10:24;;;;;;;23.35;14.82;;;;;;;11.84;100.00;101840.34;10587551;28;20518;-62
2021/10/18 23:15:27;;;;;;;15.25;12.43;;;;;;;11.96;100.00;101833.72;10587809;28;20048;-62
2021/10/18 23:20:29;;;;;;;18.67;13.45;;;;;;;11.89;100.00;101827.88;10587043;28;20039;-62
2021/10/18 23:25:31;;;;;;;19.08;13.23;;;;;;;11.96;100.00;101820.59;10587778;28;20044;-62
2021/10/18 23:30:34;;;;;;;15.18;12.85;;;;;;;12.11;100.00;101820.81;10586068;28;20044;-62
2021/10/18 23:35:36;;;;;;;16.35;12.52;;;;;;;11.92;100.00;101818.19;10586782;28;20055;-61
2021/10/18 23:40:39;;;;;;;19.55;13.77;;;;;;;11.99;100.00;101814.38;10586477;28;20596;-62
2021/10/18 23:45:42;;;;;;;15.50;13.15;;;;;;;12.00;100.00;101810.81;10568862;28;20043;-62
2021/10/18 23:50:44;;;;;;;17.17;12.18;;;;;;;12.23;100.00;101789.56;10586210;28;20122;-62